Time;durP1;ratioP1;P1;durP2;ratioP2;P2;SDS_P1;SDS_P2;PMS_P1;PMS_P2;Temp;Humidity;BMP_temperature;BMP_pressure;BME280_temperature;BME280_humidity;BME280_pressure;Samples;Min_cycle;Max_cycle;Signal;HPM_P1;HPM_P2
2021/01/27 00:00:26;;;;;;;30.42;18.70;;;3.20;92.00;;;;;;4990642;28;20046;-56
2021/01/27 00:02:52;;;;;;;29.20;18.85;;;3.20;92.00;;;;;;4994068;28;20081;-56
2021/01/27 00:05:30;;;;;;;27.98;18.95;;;3.20;91.90;;;;;;4992163;28;20125;-53
2021/01/27 00:07:56;;;;;;;33.63;19.77;;;3.10;91.80;;;;;;4991819;28;20035;-55
2021/01/27 00:10:21;;;;;;;27.63;19.15;;;3.10;91.90;;;;;;4993395;28;20055;-53
2021/01/27 00:12:47;;;;;;;33.55;20.08;;;3.10;92.00;;;;;;4988271;28;20046;-53
2021/01/27 00:15:25;;;;;;;36.58;20.27;;;3.10;92.00;;;;;;4984438;28;20117;-55
2021/01/27 00:17:51;;;;;;;30.85;19.35;;;3.10;92.10;;;;;;4991906;28;20046;-55
2021/01/27 00:20:19;;;;;;;33.05;21.17;;;3.00;92.10;;;;;;4967715;28;20048;-52
2021/01/27 00:22:46;;;;;;;32.85;20.58;;;3.00;92.20;;;;;;4992536;28;20109;-55
2021/01/27 00:25:13;;;;;;;35.88;21.92;;;3.10;92.40;;;;;;4988286;28;20086;-54
2021/01/27 00:27:38;;;;;;;33.25;21.88;;;3.00;92.10;;;;;;4992341;28;20426;-54
2021/01/27 00:30:09;;;;;;;32.70;19.98;;;3.10;92.10;;;;;;4990545;28;20053;-52
2021/01/27 00:32:35;;;;;;;34.83;21.27;;;3.00;92.00;;;;;;4982381;28;20046;-54
2021/01/27 00:35:05;;;;;;;30.98;20.55;;;3.10;92.10;;;;;;4992226;28;20512;-53
2021/01/27 00:37:31;;;;;;;35.20;21.42;;;3.00;92.20;;;;;;4989829;28;20053;-52
2021/01/27 00:39:56;;;;;;;34.80;21.77;;;3.00;92.20;;;;;;4988527;28;20057;-52
2021/01/27 00:42:22;;;;;;;36.10;21.90;;;3.00;92.20;;;;;;4990486;28;20751;-53
2021/01/27 00:44:48;;;;;;;34.05;20.92;;;2.90;92.30;;;;;;4991913;28;20046;-52
2021/01/27 00:47:13;;;;;;;31.95;21.45;;;2.90;92.30;;;;;;4991710;28;20073;-53
2021/01/27 00:49:39;;;;;;;29.33;20.67;;;2.80;92.20;;;;;;4992157;28;20052;-53
2021/01/27 00:52:05;;;;;;;33.60;20.73;;;2.80;92.30;;;;;;4990469;28;20073;-54
2021/01/27 00:54:31;;;;;;;33.25;20.27;;;2.80;92.40;;;;;;4991765;28;20073;-55
2021/01/27 00:56:56;;;;;;;31.42;20.65;;;2.80;92.40;;;;;;4990404;28;20478;-55
2021/01/27 00:59:22;;;;;;;32.97;20.63;;;2.80;92.40;;;;;;4992072;28;20125;-55
2021/01/27 01:01:48;;;;;;;31.15;20.30;;;2.80;92.30;;;;;;4990359;28;20154;-54
2021/01/27 01:04:13;;;;;;;30.90;21.05;;;2.80;92.30;;;;;;4992106;28;20450;-55
2021/01/27 01:06:39;;;;;;;30.80;19.88;;;2.80;92.30;;;;;;4990207;28;20395;-53
2021/01/27 01:09:05;;;;;;;28.67;19.33;;;2.80;92.30;;;;;;4991745;28;20553;-54
2021/01/27 01:11:31;;;;;;;26.70;18.63;;;2.90;92.30;;;;;;4991428;28;20053;-56
2021/01/27 01:13:57;;;;;;;28.95;18.45;;;3.00;92.10;;;;;;4996758;28;20121;-56
2021/01/27 01:16:22;;;;;;;26.73;18.40;;;2.90;92.00;;;;;;4990526;28;20046;-54
2021/01/27 01:18:48;;;;;;;27.00;18.00;;;2.90;91.90;;;;;;4991253;28;20037;-53
2021/01/27 01:21:13;;;;;;;27.13;17.73;;;2.90;92.00;;;;;;4989407;28;20042;-52
2021/01/27 01:23:41;;;;;;;29.67;16.48;;;2.90;91.80;;;;;;4989915;28;20034;-53
2021/01/27 01:26:07;;;;;;;26.70;16.35;;;3.00;91.50;;;;;;4991233;28;20572;-56
2021/01/27 01:28:33;;;;;;;28.30;17.27;;;3.00;91.60;;;;;;4991788;28;20042;-53
2021/01/27 01:30:59;;;;;;;25.08;16.23;;;3.00;91.40;;;;;;4991298;28;20046;-56
2021/01/27 01:33:30;;;;;;;22.13;14.88;;;3.00;91.20;;;;;;4988569;28;20045;-54
2021/01/27 01:35:55;;;;;;;25.75;15.10;;;3.00;91.20;;;;;;4990661;28;20042;-53
2021/01/27 01:38:22;;;;;;;22.10;14.55;;;3.00;91.20;;;;;;4991259;28;20056;-53
2021/01/27 01:40:54;;;;;;;21.42;14.07;;;3.00;91.20;;;;;;4991281;28;20042;-52
2021/01/27 01:43:32;;;;;;;21.17;13.50;;;3.10;91.00;;;;;;4990189;28;20038;-52
2021/01/27 01:46:19;;;;;;;23.35;14.63;;;3.10;90.70;;;;;;4989557;28;20607;-53
2021/01/27 01:48:55;;;;;;;18.90;13.27;;;3.00;90.80;;;;;;4990502;28;20482;-51
2021/01/27 01:51:38;;;;;;;20.85;12.45;;;3.00;90.80;;;;;;4991207;28;20042;-53
2021/01/27 01:54:31;;;;;;;19.83;12.75;;;3.00;90.70;;;;;;4982499;28;20078;-54
2021/01/27 01:57:05;;;;;;;21.10;13.00;;;3.00;90.70;;;;;;4975787;28;20042;-55
2021/01/27 01:59:34;;;;;;;21.85;12.40;;;3.00;90.40;;;;;;4984046;28;20051;-53
2021/01/27 02:02:03;;;;;;;20.17;12.38;;;3.00;90.60;;;;;;4987146;28;20092;-55
2021/01/27 02:04:34;;;;;;;20.83;12.25;;;3.00;90.30;;;;;;4988131;28;20046;-55
2021/01/27 02:07:00;;;;;;;20.25;12.35;;;2.90;90.50;;;;;;4982870;28;20041;-54
2021/01/27 02:09:26;;;;;;;17.48;11.23;;;2.90;90.20;;;;;;4990508;28;20051;-55
2021/01/27 02:12:16;;;;;;;20.13;11.13;;;2.90;90.40;;;;;;4989926;28;20557;-54
2021/01/27 02:15:20;;;;;;;18.27;11.48;;;2.90;90.20;;;;;;4986188;28;20042;-55
2021/01/27 02:18:06;;;;;;;18.30;10.70;;;2.90;90.20;;;;;;4986144;28;20514;-55
2021/01/27 02:21:04;;;;;;;16.95;10.65;;;2.90;90.30;;;;;;4987169;28;20056;-56
2021/01/27 02:24:24;;;;;;;19.38;10.77;;;3.00;89.80;;;;;;4990325;28;20062;-55
2021/01/27 02:27:03;;;;;;;17.98;10.43;;;2.90;90.10;;;;;;4979530;28;20050;-55
2021/01/27 02:29:47;;;;;;;17.10;9.93;;;3.00;90.10;;;;;;4989101;28;20137;-52
2021/01/27 02:32:50;;;;;;;16.30;10.27;;;3.00;89.60;;;;;;4990098;28;20116;-55
2021/01/27 02:35:23;;;;;;;19.10;11.13;;;3.00;89.80;;;;;;4981090;28;20046;-54
2021/01/27 02:38:07;;;;;;;;;;;3.10;88.50;;;;;;4982135;28;20065;-55
2021/01/27 02:40:38;;;;;;;16.00;9.68;;;3.10;88.20;;;;;;4990208;28;19926;-55
2021/01/27 02:43:16;;;;;;;15.68;9.68;;;3.10;88.30;;;;;;4989318;28;20038;-53
2021/01/27 02:45:51;;;;;;;18.05;10.13;;;3.00;88.80;;;;;;4989390;28;20566;-55
2021/01/27 02:48:31;;;;;;;16.63;10.32;;;3.00;89.40;;;;;;4988874;28;20109;-56
2021/01/27 02:51:14;;;;;;;16.17;10.43;;;3.00;89.40;;;;;;4989056;28;20499;-53
2021/01/27 02:53:52;;;;;;;17.23;10.02;;;3.10;88.70;;;;;;4986270;28;20048;-54
2021/01/27 02:56:36;;;;;;;18.90;9.55;;;3.10;88.70;;;;;;4983951;28;20049;-53
2021/01/27 02:59:06;;;;;;;19.25;10.35;;;3.10;88.00;;;;;;4989664;28;20050;-53
2021/01/27 03:01:42;;;;;;;19.77;9.15;;;3.10;87.50;;;;;;4991003;28;20069;-56
2021/01/27 03:04:31;;;;;;;17.88;9.05;;;3.00;87.70;;;;;;4985218;28;20149;-52
2021/01/27 03:06:58;;;;;;;17.33;9.57;;;3.00;87.70;;;;;;4987442;28;20189;-54
2021/01/27 03:09:30;;;;;;;19.33;9.25;;;3.00;88.10;;;;;;4990843;28;20042;-55
2021/01/27 03:11:56;;;;;;;15.93;8.88;;;3.00;88.20;;;;;;4983350;28;20324;-55
2021/01/27 03:14:22;;;;;;;15.48;8.32;;;3.00;88.00;;;;;;4987242;28;20114;-54
2021/01/27 03:16:57;;;;;;;19.10;8.57;;;3.00;87.60;;;;;;4989469;28;20105;-55
2021/01/27 03:19:31;;;;;;;12.75;7.15;;;3.00;87.80;;;;;;4982864;28;20109;-55
2021/01/27 03:22:05;;;;;;;15.95;8.48;;;3.00;87.20;;;;;;4983333;28;20038;-54
2021/01/27 03:24:38;;;;;;;14.38;8.27;;;3.00;87.30;;;;;;4982951;28;20047;-55
2021/01/27 03:27:14;;;;;;;13.80;7.97;;;3.00;87.60;;;;;;4985996;28;20679;-56
2021/01/27 03:29:48;;;;;;;14.48;8.18;;;3.00;87.80;;;;;;4984667;28;20133;-55
2021/01/27 03:32:33;;;;;;;14.05;8.40;;;2.90;87.90;;;;;;4989006;28;20050;-55
2021/01/27 03:35:36;;;;;;;15.90;8.05;;;2.90;88.10;;;;;;4990180;28;20042;-55
2021/01/27 03:38:19;;;;;;;15.63;7.57;;;2.90;88.20;;;;;;4984884;28;20065;-54
2021/01/27 03:40:46;;;;;;;;;;;3.00;87.50;;;;;;4990321;28;20050;-55
2021/01/27 03:43:23;;;;;;;12.60;7.57;;;3.00;87.50;;;;;;4992387;28;19922;-55
2021/01/27 03:45:51;;;;;;;12.95;7.68;;;2.90;87.70;;;;;;4985767;28;20038;-55
2021/01/27 03:48:59;;;;;;;15.13;7.57;;;3.00;87.70;;;;;;4991775;28;20069;-56
2021/01/27 03:51:28;;;;;;;14.90;8.18;;;3.10;87.10;;;;;;4981037;28;20410;-56
2021/01/27 03:53:56;;;;;;;13.73;7.47;;;3.10;86.70;;;;;;4992156;28;20046;-55
2021/01/27 03:56:46;;;;;;;14.10;8.25;;;3.10;87.40;;;;;;4985176;28;20042;-53
2021/01/27 03:59:12;;;;;;;13.13;7.80;;;3.10;87.50;;;;;;4992531;28;20038;-53
2021/01/27 04:01:53;;;;;;;14.05;8.23;;;3.00;88.00;;;;;;4989797;28;20498;-51
2021/01/27 04:04:19;;;;;;;14.32;7.68;;;3.00;88.30;;;;;;4989281;28;20054;-54
2021/01/27 04:06:45;;;;;;;16.40;8.35;;;3.00;88.20;;;;;;4990099;28;20062;-55
2021/01/27 04:09:11;;;;;;;13.82;8.15;;;3.00;88.60;;;;;;4983819;28;20057;-55
2021/01/27 04:11:37;;;;;;;14.82;7.85;;;2.90;89.10;;;;;;4992499;28;20038;-53
2021/01/27 04:14:04;;;;;;;11.80;7.70;;;3.00;89.10;;;;;;4992750;28;20559;-52
2021/01/27 04:16:30;;;;;;;12.18;7.65;;;3.00;89.20;;;;;;4972809;28;20061;-53
2021/01/27 04:18:58;;;;;;;14.10;8.02;;;2.90;89.60;;;;;;4992580;28;20494;-52
2021/01/27 04:21:24;;;;;;;12.77;7.20;;;2.90;89.70;;;;;;4992636;28;20050;-53
2021/01/27 04:23:50;;;;;;;10.57;7.03;;;2.90;90.00;;;;;;4993363;28;20093;-53
2021/01/27 04:26:17;;;;;;;15.27;8.00;;;2.90;90.10;;;;;;4990175;28;20121;-53
2021/01/27 04:28:42;;;;;;;12.82;7.35;;;2.90;90.10;;;;;;4992389;28;20120;-54
2021/01/27 04:31:08;;;;;;;12.63;7.22;;;2.90;90.20;;;;;;4993076;28;20070;-49
2021/01/27 04:33:33;;;;;;;10.80;6.78;;;3.00;90.10;;;;;;4992486;28;20373;-49
2021/01/27 04:35:59;;;;;;;11.23;7.25;;;3.00;89.90;;;;;;4991074;28;20579;-50
2021/01/27 04:38:25;;;;;;;13.68;7.40;;;3.00;90.20;;;;;;4990546;28;20058;-52
2021/01/27 04:40:56;;;;;;;14.05;7.13;;;3.00;90.20;;;;;;4991060;28;20050;-51
2021/01/27 04:43:31;;;;;;;12.40;6.82;;;2.90;90.30;;;;;;4988432;28;20074;-52
2021/01/27 04:46:07;;;;;;;12.82;7.22;;;3.00;90.30;;;;;;4991487;28;20402;-51
2021/01/27 04:48:51;;;;;;;11.02;6.93;;;2.90;90.40;;;;;;4990183;28;20057;-50
2021/01/27 04:51:23;;;;;;;13.93;7.30;;;3.00;90.20;;;;;;4988097;28;20101;-50
2021/01/27 04:54:03;;;;;;;13.07;7.43;;;2.60;90.10;;;;;;4985499;28;20035;-50
2021/01/27 04:57:11;;;;;;;11.70;7.55;;;3.10;89.70;;;;;;4985353;28;20470;-53
2021/01/27 05:00:04;;;;;;;13.02;8.38;;;3.10;89.90;;;;;;4990185;28;20113;-50
2021/01/27 05:03:18;;;;;;;13.60;8.45;;;3.10;89.30;;;;;;4966084;28;20100;-49
2021/01/27 05:05:48;;;;;;;12.20;7.93;;;3.10;89.20;;;;;;4977499;28;20137;-51
2021/01/27 05:08:28;;;;;;;14.48;8.43;;;3.10;89.00;;;;;;4989162;28;20399;-50
2021/01/27 05:10:56;;;;;;;13.38;7.93;;;3.10;88.90;;;;;;4980220;28;20042;-50
2021/01/27 05:13:31;;;;;;;12.48;7.50;;;3.10;89.20;;;;;;4971505;28;20100;-49
2021/01/27 05:15:59;;;;;;;14.43;8.35;;;3.10;88.70;;;;;;4987916;28;20041;-50
2021/01/27 05:18:25;;;;;;;13.45;8.38;;;3.10;88.90;;;;;;4991817;28;20081;-56
2021/01/27 05:20:51;;;;;;;11.82;7.60;;;3.10;88.50;;;;;;4989571;28;20070;-49
2021/01/27 05:23:17;;;;;;;12.48;7.55;;;3.10;88.70;;;;;;4990291;28;20046;-49
2021/01/27 05:26:03;;;;;;;11.32;7.65;;;3.10;88.70;;;;;;4989498;28;20423;-50
2021/01/27 05:28:38;;;;;;;12.48;7.35;;;3.20;88.80;;;;;;4984998;28;20034;-50
2021/01/27 05:31:04;;;;;;;11.52;7.57;;;3.10;89.10;;;;;;4989976;28;20058;-52
2021/01/27 05:33:44;;;;;;;12.88;7.15;;;3.10;88.90;;;;;;4989803;28;20302;-51
2021/01/27 05:36:26;;;;;;;11.05;6.70;;;3.10;89.10;;;;;;4991382;28;20097;-51
2021/01/27 05:39:13;;;;;;;12.63;7.70;;;3.00;89.50;;;;;;4983549;28;20530;-56
2021/01/27 05:41:40;;;;;;;12.15;6.80;;;3.00;89.20;;;;;;4990258;28;20348;-55
2021/01/27 05:44:09;;;;;;;9.85;6.80;;;3.10;89.30;;;;;;4988767;28;20053;-53
2021/01/27 05:46:36;;;;;;;9.60;6.57;;;3.10;89.60;;;;;;4990773;28;20120;-54
2021/01/27 05:49:09;;;;;;;13.18;6.18;;;3.10;89.90;;;;;;4989001;28;20050;-53
2021/01/27 05:51:37;;;;;;;9.07;6.18;;;3.10;89.60;;;;;;4984099;28;20049;-55
2021/01/27 05:54:38;;;;;;;9.20;5.68;;;3.10;90.00;;;;;;4987463;28;20043;-54
2021/01/27 05:57:15;;;;;;;7.72;5.53;;;3.00;90.10;;;;;;4919182;29;20045;-55
2021/01/27 05:59:41;;;;;;;10.20;6.38;;;2.90;90.40;;;;;;4980023;28;20120;-52
2021/01/27 06:02:07;;;;;;;10.70;5.72;;;2.90;90.60;;;;;;4984806;28;20070;-52
2021/01/27 06:04:38;;;;;;;9.90;5.50;;;3.00;90.50;;;;;;4986588;28;20065;-52
2021/01/27 06:07:26;;;;;;;11.43;5.90;;;3.00;90.50;;;;;;4990050;28;20038;-51
2021/01/27 06:09:55;;;;;;;10.10;6.07;;;2.90;90.70;;;;;;4990361;28;20051;-52
2021/01/27 06:12:21;;;;;;;9.35;5.93;;;2.90;90.90;;;;;;4981929;28;20101;-53
2021/01/27 06:15:08;;;;;;;10.20;6.22;;;2.90;91.00;;;;;;4990314;28;20081;-52
2021/01/27 06:17:44;;;;;;;8.75;5.82;;;2.90;91.20;;;;;;4964959;28;20041;-51
2021/01/27 06:20:13;;;;;;;12.00;5.78;;;2.80;91.20;;;;;;4976332;28;20046;-53
2021/01/27 06:23:12;;;;;;;9.35;5.95;;;2.80;91.30;;;;;;4984527;28;20529;-55
2021/01/27 06:26:05;;;;;;;10.25;6.38;;;2.70;91.40;;;;;;4986784;28;20096;-53
2021/01/27 06:28:39;;;;;;;9.23;6.27;;;2.70;91.60;;;;;;4988731;28;20399;-50
2021/01/27 06:31:22;;;;;;;9.60;5.57;;;2.70;91.60;;;;;;4986935;28;20073;-52
2021/01/27 06:34:15;;;;;;;10.27;5.97;;;2.60;91.80;;;;;;4987125;28;20122;-51
2021/01/27 06:36:59;;;;;;;8.13;5.88;;;2.60;91.70;;;;;;4986124;28;20241;-53
2021/01/27 06:39:51;;;;;;;8.77;6.10;;;2.50;91.70;;;;;;4986334;28;20053;-53
2021/01/27 06:42:51;;;;;;;10.43;6.43;;;2.60;91.80;;;;;;4989626;28;20058;-52
2021/01/27 06:45:53;;;;;;;10.30;6.25;;;2.50;91.90;;;;;;4985924;28;20042;-53
2021/01/27 06:48:41;;;;;;;8.90;6.20;;;2.50;91.80;;;;;;4964274;28;20046;-52
2021/01/27 06:51:32;;;;;;;11.13;6.75;;;2.50;91.60;;;;;;4988627;28;20046;-54
2021/01/27 06:54:22;;;;;;;13.07;6.40;;;2.40;91.70;;;;;;4988908;28;20053;-54
2021/01/27 06:56:50;;;;;;;11.32;6.55;;;2.30;91.90;;;;;;4988364;28;20049;-55
2021/01/27 06:59:47;;;;;;;14.45;7.05;;;2.20;92.00;;;;;;4989099;28;20042;-55
2021/01/27 07:02:40;;;;;;;8.98;6.35;;;2.20;92.10;;;;;;4987109;28;20042;-51
2021/01/27 07:05:24;;;;;;;;;;;2.10;92.20;;;;;;4987693;28;20077;-52
2021/01/27 07:08:14;;;;;;;9.82;6.28;;;2.10;92.30;;;;;;4984614;28;19941;-50
2021/01/27 07:10:57;;;;;;;10.98;6.80;;;2.10;92.10;;;;;;4988119;28;20048;-52
2021/01/27 07:13:37;;;;;;;11.98;6.97;;;2.10;92.30;;;;;;4989046;28;20061;-53
2021/01/27 07:16:11;;;;;;;13.38;6.90;;;2.10;92.30;;;;;;4986692;28;20487;-53
2021/01/27 07:18:46;;;;;;;12.70;7.63;;;2.10;92.40;;;;;;4992353;28;20447;-53
2021/01/27 07:21:42;;;;;;;11.27;6.85;;;2.00;92.40;;;;;;4988853;28;20141;-52
2021/01/27 07:24:18;;;;;;;12.38;7.65;;;2.00;92.40;;;;;;4988313;28;20109;-53
2021/01/27 07:27:13;;;;;;;12.40;7.70;;;2.00;92.50;;;;;;4992286;28;20034;-52
2021/01/27 07:30:07;;;;;;;12.70;7.63;;;2.00;92.60;;;;;;4992688;28;20042;-52
2021/01/27 07:32:42;;;;;;;13.38;7.85;;;2.00;92.60;;;;;;4990758;28;20043;-54
2021/01/27 07:35:22;;;;;;;13.98;8.05;;;2.00;92.50;;;;;;4992062;28;20045;-55
2021/01/27 07:38:01;;;;;;;12.38;7.72;;;2.00;92.70;;;;;;4993605;28;20504;-53
2021/01/27 07:40:35;;;;;;;13.63;8.23;;;2.00;92.60;;;;;;4990864;28;20117;-53
2021/01/27 07:43:21;;;;;;;13.82;8.60;;;1.90;93.00;;;;;;4991654;28;20085;-52
2021/01/27 07:45:51;;;;;;;13.35;8.25;;;1.90;92.70;;;;;;4989047;28;20046;-51
2021/01/27 07:48:34;;;;;;;13.02;8.85;;;1.90;92.90;;;;;;4990201;28;20423;-53
2021/01/27 07:51:19;;;;;;;14.98;8.65;;;1.80;92.90;;;;;;4992195;28;20038;-54
2021/01/27 07:54:02;;;;;;;14.23;8.70;;;1.80;92.90;;;;;;4991598;28;20061;-53
2021/01/27 07:56:42;;;;;;;14.93;8.40;;;1.80;93.00;;;;;;4988127;28;20092;-53
2021/01/27 07:59:20;;;;;;;12.20;7.65;;;1.80;92.90;;;;;;4992306;28;20041;-54
2021/01/27 08:01:51;;;;;;;12.98;8.02;;;1.80;93.10;;;;;;4981279;28;20039;-53
2021/01/27 08:04:43;;;;;;;11.35;7.85;;;1.80;93.00;;;;;;4994271;28;20046;-54
2021/01/27 08:07:23;;;;;;;13.87;8.07;;;1.80;93.00;;;;;;4987542;28;20049;-54
2021/01/27 08:09:51;;;;;;;13.15;8.95;;;1.80;93.00;;;;;;4976178;28;20104;-55
2021/01/27 08:12:35;;;;;;;13.95;8.88;;;1.80;93.00;;;;;;4988258;28;20047;-54
2021/01/27 08:15:26;;;;;;;13.27;8.18;;;1.80;93.00;;;;;;4993953;28;20046;-51
2021/01/27 08:17:55;;;;;;;12.88;8.20;;;1.90;93.00;;;;;;4987600;28;20050;-54
2021/01/27 08:20:31;;;;;;;11.02;7.93;;;1.90;93.00;;;;;;4976168;28;20050;-53
2021/01/27 08:23:19;;;;;;;13.50;8.43;;;1.90;92.90;;;;;;4984179;28;20053;-53
2021/01/27 08:26:06;;;;;;;12.07;8.27;;;1.90;93.00;;;;;;4991538;28;20125;-54
2021/01/27 08:28:37;;;;;;;14.35;8.68;;;1.90;93.00;;;;;;4992798;28;20046;-54
2021/01/27 08:31:12;;;;;;;12.27;8.38;;;1.90;92.90;;;;;;4976920;28;20043;-52
2021/01/27 08:33:49;;;;;;;12.63;8.45;;;1.90;93.10;;;;;;4983772;28;20427;-53
2021/01/27 08:36:33;;;;;;;13.32;8.38;;;1.80;93.10;;;;;;4979988;28;20509;-50
2021/01/27 08:38:58;;;;;;;13.68;8.57;;;1.90;93.30;;;;;;4992862;28;20038;-54
2021/01/27 08:42:00;;;;;;;14.68;8.95;;;1.80;93.30;;;;;;4992547;28;20169;-54
2021/01/27 08:44:36;;;;;;;12.43;8.70;;;1.80;93.40;;;;;;4992906;28;20105;-56
2021/01/27 08:47:08;;;;;;;12.32;8.35;;;1.90;93.40;;;;;;4992856;28;20113;-56
2021/01/27 08:49:52;;;;;;;11.95;8.38;;;1.90;93.40;;;;;;4992332;28;20458;-55
2021/01/27 08:52:18;;;;;;;13.00;8.73;;;1.90;93.40;;;;;;4979335;28;20530;-54
2021/01/27 08:54:45;;;;;;;14.27;8.52;;;1.90;93.50;;;;;;4991813;28;20042;-55
2021/01/27 08:57:22;;;;;;;13.02;8.65;;;1.90;93.50;;;;;;4992324;28;20132;-55
2021/01/27 09:00:06;;;;;;;12.57;8.02;;;1.90;93.50;;;;;;4992706;28;20042;-54
2021/01/27 09:02:46;;;;;;;12.30;7.72;;;2.00;93.50;;;;;;4986288;28;20517;-54
2021/01/27 09:05:26;;;;;;;12.75;8.05;;;2.00;93.50;;;;;;4992962;28;20038;-55
2021/01/27 09:08:11;;;;;;;14.75;9.88;;;2.00;93.70;;;;;;4978647;28;20043;-54
2021/01/27 09:10:42;;;;;;;11.52;8.50;;;2.00;93.60;;;;;;4983388;28;20086;-53
2021/01/27 09:13:29;;;;;;;12.15;8.70;;;2.00;93.80;;;;;;4989291;28;20053;-51
2021/01/27 09:15:59;;;;;;;14.82;9.48;;;2.10;93.60;;;;;;4992387;28;20042;-56
2021/01/27 09:18:25;;;;;;;12.25;8.27;;;2.10;93.70;;;;;;4991612;28;20109;-57
2021/01/27 09:20:51;;;;;;;11.98;8.50;;;2.10;93.80;;;;;;4986694;28;20097;-56
2021/01/27 09:23:19;;;;;;;12.48;8.15;;;2.10;93.80;;;;;;4973101;28;20125;-54
2021/01/27 09:25:47;;;;;;;10.90;7.78;;;2.10;93.90;;;;;;4984147;28;20035;-53
2021/01/27 09:28:23;;;;;;;11.85;7.80;;;2.10;93.80;;;;;;4992292;28;20045;-51
2021/01/27 09:30:51;;;;;;;11.23;7.45;;;2.20;93.90;;;;;;4970369;28;20061;-54
2021/01/27 09:33:31;;;;;;;10.85;7.45;;;2.20;93.90;;;;;;4983177;28;20042;-54
2021/01/27 09:36:08;;;;;;;10.82;7.13;;;2.30;93.90;;;;;;4990907;28;20074;-55
2021/01/27 09:38:34;;;;;;;11.95;7.68;;;2.30;93.80;;;;;;4992325;28;20042;-55
2021/01/27 09:41:12;;;;;;;10.18;7.57;;;2.40;93.80;;;;;;4977827;28;20053;-54
2021/01/27 09:43:44;;;;;;;10.05;6.63;;;2.40;93.80;;;;;;4992012;28;20498;-54
2021/01/27 09:46:34;;;;;;;9.63;6.75;;;2.40;94.00;;;;;;4990436;28;20097;-54
2021/01/27 09:49:26;;;;;;;11.02;7.40;;;2.50;93.90;;;;;;4992027;28;20042;-54
2021/01/27 09:51:54;;;;;;;8.98;6.25;;;2.50;93.90;;;;;;4971654;28;20049;-54
2021/01/27 09:54:21;;;;;;;8.82;6.53;;;2.60;93.90;;;;;;4981609;28;20083;-54
2021/01/27 09:56:55;;;;;;;8.52;6.28;;;2.60;93.80;;;;;;4974130;28;20283;-51
2021/01/27 09:59:21;;;;;;;9.93;6.72;;;2.60;93.80;;;;;;4990652;28;20050;-54
2021/01/27 10:01:48;;;;;;;9.98;6.35;;;2.70;94.00;;;;;;4979293;28;20125;-54
2021/01/27 10:04:17;;;;;;;9.52;6.47;;;2.70;93.90;;;;;;4990926;28;20050;-53
2021/01/27 10:06:48;;;;;;;11.63;7.22;;;2.70;94.00;;;;;;4990934;28;20042;-53
2021/01/27 10:09:13;;;;;;;11.40;6.93;;;2.70;93.90;;;;;;4991811;28;20050;-54
2021/01/27 10:11:39;;;;;;;9.02;6.35;;;2.80;94.00;;;;;;4976970;28;20049;-54
2021/01/27 10:14:15;;;;;;;8.32;6.05;;;2.80;93.90;;;;;;4991629;28;20392;-53
2021/01/27 10:16:58;;;;;;;9.48;6.43;;;2.80;93.90;;;;;;4987819;28;20125;-54
2021/01/27 10:19:37;;;;;;;9.90;6.75;;;2.90;93.90;;;;;;4979939;28;20038;-56
2021/01/27 10:22:06;;;;;;;8.75;6.43;;;2.90;93.80;;;;;;4985286;28;20069;-52
2021/01/27 10:24:56;;;;;;;9.32;6.00;;;3.00;93.70;;;;;;4980307;28;20430;-53
2021/01/27 10:27:35;;;;;;;10.23;6.80;;;3.00;93.90;;;;;;4990802;28;20042;-54
2021/01/27 10:30:22;;;;;;;9.13;6.50;;;2.90;93.90;;;;;;4982423;28;20051;-54
2021/01/27 10:32:48;;;;;;;9.35;6.53;;;2.90;94.10;;;;;;4977136;28;20487;-53
2021/01/27 10:35:22;;;;;;;9.98;6.95;;;2.90;94.10;;;;;;4979024;28;20065;-52
2021/01/27 10:37:49;;;;;;;12.25;7.65;;;2.90;94.10;;;;;;4991240;28;20150;-54
2021/01/27 10:40:17;;;;;;;10.70;6.93;;;2.90;94.20;;;;;;4986846;28;20073;-54
2021/01/27 10:42:55;;;;;;;11.60;7.60;;;2.90;94.20;;;;;;4989228;28;20490;-53
2021/01/27 10:45:35;;;;;;;9.50;6.75;;;3.00;94.20;;;;;;4990650;28;20058;-54
2021/01/27 10:48:05;;;;;;;10.65;7.00;;;3.10;94.20;;;;;;4990906;28;20046;-52
2021/01/27 10:50:31;;;;;;;10.73;7.18;;;3.10;94.20;;;;;;4990959;28;20038;-54
2021/01/27 10:52:58;;;;;;;10.35;6.93;;;3.10;94.20;;;;;;4994417;28;20101;-54
2021/01/27 10:55:31;;;;;;;9.68;6.57;;;3.20;94.60;;;;;;4994938;28;20088;-53
2021/01/27 10:58:08;;;;;;;12.35;7.63;;;3.20;94.30;;;;;;4977952;28;20038;-54
2021/01/27 11:00:35;;;;;;;11.68;7.13;;;3.20;94.30;;;;;;4993769;28;20042;-54
2021/01/27 11:03:00;;;;;;;9.82;7.15;;;3.20;94.20;;;;;;4991680;28;20275;-54
2021/01/27 11:05:27;;;;;;;10.93;7.50;;;3.20;94.20;;;;;;4984174;28;20085;-51
2021/01/27 11:07:54;;;;;;;12.02;7.70;;;3.20;94.30;;;;;;4994706;28;20073;-56
2021/01/27 11:10:20;;;;;;;11.57;7.72;;;3.20;94.30;;;;;;4994421;28;20045;-53
2021/01/27 11:12:46;;;;;;;11.00;7.68;;;3.30;94.40;;;;;;4973714;28;20494;-54
2021/01/27 11:15:12;;;;;;;11.45;7.75;;;3.20;94.40;;;;;;4994540;28;20041;-53
2021/01/27 11:17:37;;;;;;;12.55;8.23;;;3.20;94.50;;;;;;4993418;28;20046;-56
2021/01/27 11:20:05;;;;;;;12.45;8.57;;;3.20;94.40;;;;;;4994857;28;20559;-56
2021/01/27 11:22:30;;;;;;;14.05;8.25;;;3.20;94.60;;;;;;4987724;28;20038;-54
2021/01/27 11:24:56;;;;;;;14.38;8.00;;;3.30;94.60;;;;;;4994406;28;20560;-54
2021/01/27 11:27:22;;;;;;;12.20;8.23;;;3.30;94.50;;;;;;4994191;28;20049;-54
2021/01/27 11:29:48;;;;;;;12.50;8.30;;;3.30;94.60;;;;;;4994287;28;20057;-54
2021/01/27 11:32:14;;;;;;;12.25;8.15;;;3.40;94.50;;;;;;4994684;28;20049;-54
2021/01/27 11:34:41;;;;;;;12.55;8.25;;;3.40;94.40;;;;;;4993868;28;20046;-55
2021/01/27 11:37:07;;;;;;;15.57;8.48;;;3.40;94.60;;;;;;4992373;28;20047;-54
2021/01/27 11:39:33;;;;;;;13.23;8.93;;;3.40;94.50;;;;;;4987426;28;20042;-54
2021/01/27 11:41:59;;;;;;;14.02;9.10;;;3.40;94.40;;;;;;4994403;28;20610;-52
2021/01/27 11:44:25;;;;;;;13.82;9.43;;;3.50;94.50;;;;;;4994102;28;20387;-54
2021/01/27 11:46:50;;;;;;;13.40;8.75;;;3.40;94.50;;;;;;4992888;28;20050;-53
2021/01/27 11:49:16;;;;;;;14.55;9.38;;;3.50;94.50;;;;;;4994450;28;20054;-52
2021/01/27 11:51:42;;;;;;;14.18;9.43;;;3.60;94.70;;;;;;4993100;28;20172;-53
2021/01/27 11:54:08;;;;;;;14.63;9.52;;;3.70;94.40;;;;;;4994297;28;20049;-55
2021/01/27 11:56:33;;;;;;;15.10;9.30;;;3.70;94.40;;;;;;4986540;28;20035;-54
2021/01/27 11:58:59;;;;;;;13.85;9.65;;;3.60;94.50;;;;;;4992068;28;20046;-52
2021/01/27 12:01:29;;;;;;;15.05;10.02;;;3.70;94.50;;;;;;4993753;28;20042;-52
2021/01/27 12:03:55;;;;;;;15.32;9.43;;;3.70;94.50;;;;;;4993622;28;20050;-53
2021/01/27 12:06:20;;;;;;;16.95;10.77;;;3.80;94.60;;;;;;4992798;28;20049;-53
2021/01/27 12:08:46;;;;;;;16.23;10.18;;;3.80;94.50;;;;;;4993500;28;20457;-55
2021/01/27 12:11:12;;;;;;;16.73;10.13;;;3.80;94.80;;;;;;4993683;28;20049;-53
2021/01/27 12:13:38;;;;;;;16.55;10.10;;;3.80;94.60;;;;;;4993512;28;20104;-52
2021/01/27 12:16:04;;;;;;;15.77;10.73;;;3.90;94.60;;;;;;4992314;28;20030;-54
2021/01/27 12:18:29;;;;;;;16.45;10.25;;;3.90;94.60;;;;;;4993410;28;20050;-53
2021/01/27 12:20:55;;;;;;;16.58;11.02;;;3.90;94.60;;;;;;4993212;28;20082;-54
2021/01/27 12:23:21;;;;;;;16.90;11.20;;;3.90;94.60;;;;;;4991792;28;20038;-53
2021/01/27 12:25:46;;;;;;;16.23;11.05;;;4.00;94.70;;;;;;4987463;28;20037;-54
2021/01/27 12:28:13;;;;;;;16.65;11.05;;;4.10;94.70;;;;;;4991235;28;20054;-51
2021/01/27 12:30:39;;;;;;;17.23;10.88;;;4.10;94.70;;;;;;4986297;28;20049;-54
2021/01/27 12:33:04;;;;;;;22.52;14.50;;;4.20;94.70;;;;;;4990338;28;20406;-50
2021/01/27 12:35:31;;;;;;;20.92;12.65;;;4.30;94.60;;;;;;4990323;28;20050;-53
2021/01/27 12:37:58;;;;;;;23.08;15.95;;;4.40;94.60;;;;;;4990842;28;20557;-55
2021/01/27 12:40:26;;;;;;;31.45;24.88;;;4.30;94.60;;;;;;4992238;28;20438;-54
2021/01/27 12:42:52;;;;;;;17.88;12.20;;;4.30;94.60;;;;;;4990563;28;20046;-50
2021/01/27 12:45:23;;;;;;;19.67;12.05;;;4.40;94.60;;;;;;4991769;28;20046;-55
2021/01/27 12:47:49;;;;;;;20.13;12.23;;;4.40;94.60;;;;;;4990140;28;20046;-56
2021/01/27 12:50:15;;;;;;;20.17;12.85;;;4.40;94.60;;;;;;4990485;28;20061;-53
2021/01/27 12:52:41;;;;;;;20.90;13.55;;;4.50;94.60;;;;;;4990618;28;20592;-54
2021/01/27 12:55:13;;;;;;;21.95;13.27;;;4.50;94.60;;;;;;4991178;28;20514;-53
2021/01/27 12:57:44;;;;;;;22.83;14.88;;;4.60;94.60;;;;;;4984644;28;20043;-56
2021/01/27 13:00:14;;;;;;;23.55;14.48;;;4.60;94.50;;;;;;4969910;28;20053;-54
2021/01/27 13:02:40;;;;;;;22.95;14.00;;;4.60;94.50;;;;;;4984803;28;20391;-54
2021/01/27 13:05:06;;;;;;;24.23;14.88;;;4.70;94.60;;;;;;4983638;28;20057;-55
2021/01/27 13:07:31;;;;;;;24.67;15.52;;;4.70;94.60;;;;;;4986629;28;20120;-58
2021/01/27 13:09:57;;;;;;;25.58;16.13;;;4.70;94.70;;;;;;4983428;28;20463;-56
2021/01/27 13:12:24;;;;;;;26.65;16.20;;;4.70;94.70;;;;;;4986314;28;20108;-54
2021/01/27 13:14:51;;;;;;;33.15;16.92;;;4.70;94.90;;;;;;4984519;28;20048;-51
2021/01/27 13:17:17;;;;;;;28.85;16.73;;;4.70;94.90;;;;;;4985744;28;20096;-53
2021/01/27 13:19:43;;;;;;;27.02;17.00;;;4.80;94.80;;;;;;4987110;28;20042;-50